createdAt,value
2019-04-07T00:01:34.418Z,8.00
2019-04-07T00:04:02.962Z,7.90
2019-04-07T00:06:31.669Z,8.00
2019-04-07T00:09:00.501Z,8.00
2019-04-07T00:11:29.102Z,8.00
2019-04-07T00:13:57.909Z,8.00
2019-04-07T00:16:26.447Z,8.00
2019-04-07T00:18:54.914Z,8.00
2019-04-07T00:21:24.041Z,8.00
2019-04-07T00:23:52.541Z,8.10
2019-04-07T00:26:21.594Z,8.00
2019-04-07T00:28:50.064Z,8.00
2019-04-07T00:31:18.483Z,8.00
2019-04-07T00:33:47.297Z,8.00
2019-04-07T00:36:16.434Z,8.00
2019-04-07T00:38:45.114Z,8.00
2019-04-07T00:41:13.533Z,7.90
2019-04-07T00:43:41.944Z,7.90
2019-04-07T00:46:10.389Z,7.90
2019-04-07T00:48:38.842Z,7.90
2019-04-07T00:51:07.796Z,7.90
2019-04-07T00:53:36.625Z,7.90
2019-04-07T00:56:05.297Z,7.80
2019-04-07T00:58:34.350Z,7.80
2019-04-07T01:01:02.800Z,7.70
2019-04-07T01:03:31.242Z,7.60
2019-04-07T01:05:59.704Z,7.60
2019-04-07T01:08:28.205Z,7.60
2019-04-07T01:10:56.991Z,7.50
2019-04-07T01:13:25.396Z,7.60
2019-04-07T01:15:53.896Z,7.50
2019-04-07T01:18:22.358Z,7.40
2019-04-07T01:20:50.859Z,7.40
2019-04-07T01:23:19.433Z,7.30
2019-04-07T01:25:47.951Z,7.30
2019-04-07T01:28:16.392Z,7.20
2019-04-07T01:30:44.850Z,7.20
2019-04-07T01:33:13.260Z,7.20
2019-04-07T01:35:48.211Z,7.10
2019-04-07T01:38:12.519Z,7.10
2019-04-07T01:40:42.867Z,7.10
2019-04-07T01:43:21.934Z,7.00
2019-04-07T01:45:57.714Z,7.00
2019-04-07T01:48:27.777Z,7.00
2019-04-07T01:51:01.473Z,6.90
2019-04-07T01:53:31.558Z,6.90
2019-04-07T01:56:01.814Z,6.80
2019-04-07T01:58:32.838Z,6.90
2019-04-07T02:01:08.780Z,6.80
2019-04-07T02:03:54.812Z,6.80
2019-04-07T02:06:40.220Z,6.80
2019-04-07T02:09:26.665Z,6.80
2019-04-07T02:12:02.699Z,6.80
2019-04-07T02:14:33.471Z,6.80
2019-04-07T02:17:13.058Z,6.90
2019-04-07T02:19:43.294Z,6.90
2019-04-07T02:22:22.435Z,6.90
2019-04-07T02:24:55.514Z,7.00
2019-04-07T02:27:25.645Z,7.10
2019-04-07T02:30:12.906Z,7.10
2019-04-07T02:32:46.211Z,7.10
2019-04-07T02:35:18.880Z,7.10
2019-04-07T02:38:07.083Z,7.10
2019-04-07T02:40:52.072Z,7.10
2019-04-07T02:43:23.378Z,7.20
2019-04-07T02:46:10.917Z,7.20
2019-04-07T02:48:48.842Z,7.20
2019-04-07T02:51:28.221Z,7.20
2019-04-07T02:54:01.030Z,7.20
2019-04-07T02:56:33.981Z,7.20
2019-04-07T02:59:07.788Z,7.20
2019-04-07T03:01:38.297Z,7.30
2019-04-07T03:04:09.444Z,7.30
2019-04-07T03:06:53.453Z,7.30
2019-04-07T03:09:29.984Z,7.40
2019-04-07T03:12:10.207Z,7.40
2019-04-07T03:14:43.047Z,7.50
2019-04-07T03:17:29.758Z,7.50
2019-04-07T03:20:00.682Z,7.60
2019-04-07T03:22:47.164Z,7.50
2019-04-07T03:25:34.314Z,7.60
2019-04-07T03:28:04.719Z,7.60
2019-04-07T03:30:40.295Z,7.70
2019-04-07T03:33:14.235Z,7.70
2019-04-07T03:35:56.109Z,7.70
2019-04-07T03:38:31.474Z,7.70
2019-04-07T03:41:01.790Z,7.80
2019-04-07T03:43:40.662Z,7.80
2019-04-07T03:46:14.253Z,7.80
2019-04-07T03:48:57.839Z,7.80
2019-04-07T03:51:37.756Z,7.80
2019-04-07T03:54:10.731Z,7.90
2019-04-07T03:56:41.622Z,7.90
2019-04-07T03:59:28.994Z,7.90
2019-04-07T04:02:05.257Z,8.00
2019-04-07T04:04:45.614Z,8.00
2019-04-07T04:07:29.965Z,8.10
2019-04-07T04:09:55.918Z,8.10
2019-04-07T04:12:32.004Z,8.10
2019-04-07T04:15:03.424Z,8.10
2019-04-07T04:17:32.730Z,8.10
2019-04-07T04:20:01.430Z,8.10
2019-04-07T04:22:30.782Z,8.10
2019-04-07T04:24:59.472Z,8.10
2019-04-07T04:27:28.276Z,8.00
2019-04-07T04:29:56.832Z,8.00
2019-04-07T04:32:25.596Z,8.00
2019-04-07T04:34:54.688Z,8.00
2019-04-07T04:37:36.052Z,8.00
2019-04-07T04:39:54.204Z,8.10
2019-04-07T04:42:22.935Z,8.10
2019-04-07T04:44:52.203Z,8.10
2019-04-07T04:47:20.886Z,8.10
2019-04-07T04:49:50.303Z,8.10
2019-04-07T04:52:20.590Z,8.10
2019-04-07T04:54:49.707Z,8.10
2019-04-07T04:57:18.326Z,8.10
2019-04-07T04:59:46.793Z,8.10
2019-04-07T05:02:15.966Z,8.10
2019-04-07T05:04:44.725Z,8.10
2019-04-07T05:07:13.270Z,8.10
2019-04-07T05:09:49.689Z,8.20
2019-04-07T05:12:11.804Z,8.20
2019-04-07T05:14:40.245Z,8.20
2019-04-07T05:17:08.659Z,8.20
2019-04-07T05:19:37.340Z,8.20
2019-04-07T05:22:05.991Z,8.20
2019-04-07T05:24:35.161Z,8.30
2019-04-07T05:27:03.760Z,8.30
2019-04-07T05:29:32.456Z,8.30
2019-04-07T05:32:01.525Z,8.20
2019-04-07T05:34:30.094Z,8.20
2019-04-07T05:36:58.783Z,8.20
2019-04-07T05:39:27.326Z,8.20
2019-04-07T05:41:55.747Z,8.20
2019-04-07T05:44:24.451Z,8.30
2019-04-07T05:46:53.596Z,8.40
2019-04-07T05:49:24.084Z,8.30
2019-04-07T05:51:52.327Z,8.40
2019-04-07T05:54:20.970Z,8.40
2019-04-07T05:56:50.193Z,8.40
2019-04-07T05:59:18.736Z,8.50
2019-04-07T06:01:49.867Z,8.50
2019-04-07T06:04:18.609Z,8.50
2019-04-07T06:06:51.233Z,8.50
2019-04-07T06:09:19.027Z,8.60
2019-04-07T06:11:47.714Z,8.60
2019-04-07T06:14:16.977Z,8.60
2019-04-07T06:16:45.628Z,8.60
2019-04-07T06:19:14.057Z,8.60
2019-04-07T06:21:46.055Z,8.60
2019-04-07T06:24:13.373Z,8.60
2019-04-07T06:26:43.890Z,8.60
2019-04-07T06:29:12.054Z,8.60
2019-04-07T06:31:40.421Z,8.70
2019-04-07T06:34:11.255Z,8.60
2019-04-07T06:36:39.662Z,8.60
2019-04-07T06:39:08.380Z,8.60
2019-04-07T06:41:36.809Z,8.60
2019-04-07T06:44:11.260Z,8.60
2019-04-07T06:46:37.130Z,8.60
2019-04-07T06:49:19.697Z,8.60
2019-04-07T06:52:00.707Z,8.50
2019-04-07T06:54:40.496Z,8.50
2019-04-07T06:57:13.887Z,8.50
2019-04-07T07:00:00.030Z,8.60
2019-04-07T07:02:39.145Z,8.50
2019-04-07T07:05:11.305Z,8.50
2019-04-07T07:07:45.847Z,8.60
2019-04-07T07:10:26.160Z,8.60
2019-04-07T07:12:51.782Z,8.70
2019-04-07T07:15:21.964Z,8.60
2019-04-07T07:18:00.924Z,8.60
2019-04-07T07:21:03.862Z,8.60
2019-04-07T07:23:36.409Z,8.70
2019-04-07T07:26:05.062Z,8.70
2019-04-07T07:28:33.756Z,8.70
2019-04-07T07:31:03.143Z,8.80
2019-04-07T07:33:31.750Z,8.80
2019-04-07T07:36:00.230Z,8.80
2019-04-07T07:38:31.132Z,8.80
2019-04-07T07:41:01.509Z,8.80
2019-04-07T07:43:30.259Z,8.80
2019-04-07T07:45:59.045Z,8.80
2019-04-07T07:48:28.379Z,8.80
2019-04-07T07:50:57.040Z,8.80
2019-04-07T07:53:27.492Z,8.80
2019-04-07T07:55:55.611Z,8.80
2019-04-07T07:58:27.937Z,8.80
2019-04-07T08:00:54.458Z,8.80
2019-04-07T08:03:23.049Z,8.90
2019-04-07T08:05:52.223Z,8.90
2019-04-07T08:08:21.737Z,8.90
2019-04-07T08:10:50.730Z,8.90
2019-04-07T08:13:20.081Z,8.90
2019-04-07T08:15:49.339Z,8.90
2019-04-07T08:18:20.486Z,8.90
2019-04-07T08:20:49.167Z,8.90
2019-04-07T08:23:18.743Z,8.80
2019-04-07T08:25:47.193Z,8.90
2019-04-07T08:28:16.090Z,8.90
2019-04-07T08:30:47.636Z,8.90
2019-04-07T08:33:16.858Z,8.90
2019-04-07T08:35:45.299Z,9.00
2019-04-07T08:38:14.005Z,9.00
2019-04-07T08:40:42.520Z,9.10
2019-04-07T08:46:52.937Z,9.10
2019-04-07T08:49:24.056Z,9.10
2019-04-07T08:51:51.704Z,9.20
2019-04-07T08:54:20.167Z,9.30
2019-04-07T08:56:48.701Z,9.30
2019-04-07T08:59:17.318Z,9.40
2019-04-07T09:01:46.964Z,9.60
2019-04-07T09:04:17.629Z,9.60
2019-04-07T09:06:46.305Z,9.80
2019-04-07T09:09:15.592Z,9.90
2019-04-07T09:11:44.137Z,10.00
2019-04-07T09:14:14.737Z,10.20
2019-04-07T09:17:00.366Z,10.30
2019-04-07T09:19:35.793Z,10.40
2019-04-07T09:22:23.445Z,10.40
2019-04-07T09:25:06.648Z,10.30
2019-04-07T09:27:35.228Z,10.40
2019-04-07T09:30:10.440Z,10.40
2019-04-07T09:32:47.391Z,10.30
2019-04-07T09:38:35.407Z,10.10
2019-04-07T09:41:24.945Z,10.20
2019-04-07T09:44:11.455Z,10.20
2019-04-07T09:46:57.479Z,10.30
2019-04-07T09:49:48.174Z,10.40
2019-04-07T09:52:31.854Z,10.40
2019-04-07T09:55:09.420Z,10.50
2019-04-07T09:57:54.883Z,10.50
2019-04-07T10:00:33.914Z,10.60
2019-04-07T10:03:07.743Z,10.70
2019-04-07T10:05:52.645Z,10.70
2019-04-07T10:08:26.033Z,10.60
2019-04-07T10:11:12.890Z,10.60
2019-04-07T10:13:46.342Z,10.60
2019-04-07T10:16:35.021Z,10.60
2019-04-07T10:19:10.997Z,10.60
2019-04-07T10:21:47.532Z,10.60
2019-04-07T10:24:20.791Z,10.60
2019-04-07T10:27:08.136Z,10.60
2019-04-07T10:29:38.609Z,10.60
2019-04-07T10:32:26.778Z,10.60
2019-04-07T10:34:56.684Z,10.60
2019-04-07T10:37:30.181Z,10.60
2019-04-07T10:40:19.534Z,10.60
2019-04-07T10:42:51.433Z,10.60
2019-04-07T10:45:39.395Z,10.60
2019-04-07T10:48:09.515Z,10.70
2019-04-07T10:50:42.673Z,10.70
2019-04-07T10:53:19.565Z,10.70
2019-04-07T10:55:49.814Z,10.80
2019-04-07T10:58:36.839Z,10.90
2019-04-07T11:01:10.030Z,11.00
2019-04-07T11:03:45.885Z,11.10
2019-04-07T11:06:30.612Z,11.20
2019-04-07T11:09:09.632Z,11.30
2019-04-07T11:11:56.654Z,11.60
2019-04-07T11:14:33.090Z,11.80
2019-04-07T11:17:18.132Z,12.10
2019-04-07T11:19:59.939Z,12.30
2019-04-07T11:22:46.396Z,12.40
2019-04-07T11:25:19.714Z,12.60
2019-04-07T11:27:55.711Z,12.60
2019-04-07T11:30:27.218Z,12.70
2019-04-07T11:33:03.551Z,12.80
2019-04-07T11:35:36.923Z,12.90
2019-04-07T11:38:07.211Z,13.10
2019-04-07T11:40:48.983Z,13.20
2019-04-07T11:43:30.487Z,13.30
2019-04-07T11:46:03.564Z,13.50
2019-04-07T11:48:33.638Z,13.30
2019-04-07T11:51:03.710Z,13.00
2019-04-07T11:53:33.775Z,13.20
2019-04-07T11:56:11.245Z,13.40
2019-04-07T11:58:58.978Z,13.40
2019-04-07T12:01:47.934Z,13.30
2019-04-07T12:04:26.587Z,13.40
2019-04-07T12:07:00.023Z,13.50
2019-04-07T12:09:48.630Z,13.40
2019-04-07T12:12:35.606Z,13.40
2019-04-07T12:15:26.926Z,13.20
2019-04-07T12:17:59.100Z,13.20
2019-04-07T12:20:38.008Z,13.10
2019-04-07T12:23:08.246Z,12.90
2019-04-07T12:25:44.466Z,12.50
2019-04-07T12:28:31.387Z,12.50
2019-04-07T12:31:19.543Z,12.40
2019-04-07T12:33:49.615Z,12.30
2019-04-07T12:36:30.749Z,12.30
2019-04-07T12:39:02.922Z,12.20
2019-04-07T12:41:50.038Z,12.10
2019-04-07T12:44:23.407Z,12.10
2019-04-07T12:46:54.017Z,11.90
2019-04-07T12:49:29.921Z,11.80
2019-04-07T12:52:16.333Z,11.80
2019-04-07T12:54:49.158Z,11.90
2019-04-07T12:57:35.453Z,12.10
2019-04-07T13:00:15.677Z,11.90
2019-04-07T13:02:47.498Z,12.20
2019-04-07T13:05:21.328Z,12.20
2019-04-07T13:08:00.548Z,12.20
2019-04-07T13:10:39.457Z,12.30
2019-04-07T13:13:12.413Z,12.20
2019-04-07T13:15:49.844Z,12.00
2019-04-07T13:18:38.975Z,12.10
2019-04-07T13:21:11.257Z,12.00
2019-04-07T13:23:44.860Z,11.90
2019-04-07T13:26:22.786Z,11.90
2019-04-07T13:29:07.894Z,11.90
2019-04-07T13:31:38.456Z,11.90
2019-04-07T13:34:20.749Z,12.00
2019-04-07T13:36:56.305Z,11.90
2019-04-07T13:39:26.382Z,11.80
2019-04-07T13:42:00.125Z,11.90
2019-04-07T13:44:34.526Z,11.90
2019-04-07T13:47:07.252Z,11.90
2019-04-07T13:49:40.128Z,12.00
2019-04-07T13:52:26.721Z,12.00
2019-04-07T13:54:56.950Z,12.00
2019-04-07T13:57:30.952Z,12.00
2019-04-07T14:00:17.028Z,12.00
2019-04-07T14:03:05.882Z,11.90
2019-04-07T14:05:51.092Z,11.90
2019-04-07T14:08:33.357Z,11.80
2019-04-07T14:11:04.242Z,11.70
2019-04-07T14:13:39.599Z,11.70
2019-04-07T14:16:09.415Z,11.70
2019-04-07T14:18:54.677Z,11.60
2019-04-07T14:21:42.920Z,11.60
2019-04-07T14:24:13.042Z,11.50
2019-04-07T14:26:58.830Z,11.40
2019-04-07T14:29:34.893Z,11.40
2019-04-07T14:32:21.992Z,11.40
2019-04-07T14:35:09.372Z,11.30
2019-04-07T14:37:42.923Z,11.40
2019-04-07T14:40:13.481Z,11.50
2019-04-07T14:43:01.009Z,11.50
2019-04-07T14:45:34.108Z,11.50
2019-04-07T14:48:13.408Z,11.60
2019-04-07T14:50:43.469Z,11.60
2019-04-07T14:53:30.369Z,11.60
2019-04-07T14:56:07.893Z,11.60
2019-04-07T14:58:38.335Z,11.60
2019-04-07T15:01:08.589Z,11.50
2019-04-07T15:03:36.990Z,11.40
2019-04-07T15:06:06.499Z,11.20
2019-04-07T15:08:46.238Z,11.20
2019-04-07T15:11:19.556Z,11.10
2019-04-07T15:13:48.046Z,11.10
2019-04-07T15:16:16.574Z,11.10
2019-04-07T15:18:45.686Z,11.10
2019-04-07T15:21:14.595Z,11.10
2019-04-07T15:23:45.807Z,11.20
2019-04-07T15:26:15.763Z,11.20
2019-04-07T15:28:43.613Z,11.20
2019-04-07T15:31:13.147Z,11.20
2019-04-07T15:33:42.325Z,11.20
2019-04-07T15:36:10.866Z,11.30
2019-04-07T15:38:41.460Z,11.20
2019-04-07T15:41:15.181Z,11.10
2019-04-07T15:43:40.092Z,11.20
2019-04-07T15:46:09.337Z,11.20
2019-04-07T15:48:38.796Z,11.20
2019-04-07T15:51:07.985Z,11.20
2019-04-07T15:53:37.009Z,11.20
2019-04-07T15:56:06.993Z,11.20
2019-04-07T15:58:35.774Z,11.10
2019-04-07T16:01:07.319Z,11.10
2019-04-07T16:03:35.580Z,11.10
2019-04-07T16:06:04.640Z,11.00
2019-04-07T16:08:33.823Z,11.00
2019-04-07T16:11:02.414Z,10.90
2019-04-07T16:13:31.665Z,10.90
2019-04-07T16:16:00.148Z,10.90
2019-04-07T16:18:29.589Z,10.80
2019-04-07T16:20:58.119Z,10.70
2019-04-07T16:23:27.266Z,10.70
2019-04-07T16:25:58.982Z,10.60
2019-04-07T16:28:26.164Z,10.60
2019-04-07T16:30:54.645Z,10.60
2019-04-07T16:33:26.173Z,10.60
2019-04-07T16:35:56.297Z,10.60
2019-04-07T16:38:25.408Z,10.60
2019-04-07T16:40:53.960Z,10.60
2019-04-07T16:43:22.413Z,10.60
2019-04-07T16:45:50.839Z,10.60
2019-04-07T16:48:19.763Z,10.60
2019-04-07T16:50:51.859Z,10.60
2019-04-07T16:53:18.513Z,10.60
2019-04-07T16:55:49.944Z,10.60
2019-04-07T16:58:17.829Z,10.50
2019-04-07T17:00:47.541Z,10.40
2019-04-07T17:03:16.234Z,10.40
2019-04-07T17:05:45.115Z,10.30
2019-04-07T17:08:17.693Z,10.30
2019-04-07T17:10:43.801Z,10.30
2019-04-07T17:13:19.789Z,10.20
2019-04-07T17:15:43.218Z,10.10
2019-04-07T17:18:39.085Z,10.10
2019-04-07T17:21:14.387Z,10.10
2019-04-07T17:23:43.366Z,10.10
2019-04-07T17:26:11.808Z,10.00
2019-04-07T17:28:44.682Z,9.90
2019-04-07T17:31:11.844Z,9.90
2019-04-07T17:33:41.389Z,9.80
2019-04-07T17:36:10.348Z,9.80
2019-04-07T17:38:56.962Z,9.80
2019-04-07T17:41:25.441Z,9.70
2019-04-07T17:44:15.999Z,9.70
2019-04-07T17:47:02.138Z,9.70
2019-04-07T17:49:48.440Z,9.70
2019-04-07T17:52:35.739Z,9.60
2019-04-07T17:55:12.756Z,9.60
2019-04-07T17:57:54.638Z,9.60
2019-04-07T18:00:24.746Z,9.50
2019-04-07T18:03:07.536Z,9.50
2019-04-07T18:05:35.376Z,9.40
2019-04-07T18:08:22.185Z,9.40
2019-04-07T18:10:57.990Z,9.30
2019-04-07T18:13:37.655Z,9.30
2019-04-07T18:16:12.155Z,9.30
2019-04-07T18:18:59.551Z,9.20
2019-04-07T18:21:48.965Z,9.20
2019-04-07T18:24:23.310Z,9.20
2019-04-07T18:26:53.663Z,9.10
2019-04-07T18:29:31.281Z,9.20
2019-04-07T18:32:01.982Z,9.20
2019-04-07T18:34:47.253Z,9.20
2019-04-07T18:37:20.557Z,9.10
2019-04-07T18:40:00.395Z,9.10
2019-04-07T18:42:28.190Z,9.10
2019-04-07T18:45:07.919Z,9.10
2019-04-07T18:47:57.113Z,9.10
2019-04-07T18:50:45.461Z,9.10
2019-04-07T18:53:15.518Z,9.10
2019-04-07T18:56:02.003Z,9.10
2019-04-07T18:58:38.509Z,9.00
2019-04-07T19:01:11.677Z,9.00
2019-04-07T19:03:51.125Z,9.00
2019-04-07T19:06:22.536Z,9.00
2019-04-07T19:09:04.854Z,8.90
2019-04-07T19:11:41.646Z,9.00
2019-04-07T19:14:33.490Z,9.10
2019-04-07T19:16:50.814Z,9.10
2019-04-07T19:19:29.995Z,9.10
2019-04-07T19:22:18.887Z,9.00
2019-04-07T19:25:11.406Z,9.00
2019-04-07T19:27:44.789Z,9.00
2019-04-07T19:30:15.866Z,8.90
2019-04-07T19:32:52.614Z,8.90
2019-04-07T19:35:40.649Z,8.80
2019-04-07T19:38:25.563Z,8.90
2019-04-07T19:40:59.294Z,8.90
2019-04-07T19:43:37.183Z,8.80
2019-04-07T19:46:27.148Z,8.90
2019-04-07T19:49:15.046Z,8.80
2019-04-07T19:51:48.295Z,8.80
2019-04-07T19:54:34.546Z,8.80
2019-04-07T19:57:07.541Z,8.80
2019-04-07T19:59:42.556Z,8.80
2019-04-07T20:02:12.115Z,8.80
2019-04-07T20:04:59.339Z,8.80
2019-04-07T20:07:46.081Z,8.80
2019-04-07T20:10:25.392Z,8.80
2019-04-07T20:13:00.443Z,8.80
2019-04-07T20:15:38.071Z,8.90
2019-04-07T20:18:05.973Z,8.90
2019-04-07T20:20:43.641Z,8.90
2019-04-07T20:23:18.451Z,8.90
2019-04-07T20:25:52.746Z,8.80
2019-04-07T20:28:23.070Z,8.80
2019-04-07T20:31:10.382Z,8.80
2019-04-07T20:33:55.661Z,8.80
2019-04-07T20:36:28.557Z,8.90
2019-04-07T20:39:01.865Z,8.80
2019-04-07T20:41:52.577Z,8.80
2019-04-07T20:44:38.171Z,8.80
2019-04-07T20:47:23.290Z,8.90
2019-04-07T20:49:56.830Z,8.80
2019-04-07T20:52:38.939Z,8.80
2019-04-07T20:55:21.576Z,8.90
2019-04-07T20:58:15.304Z,8.80
2019-04-07T21:00:53.322Z,8.80
2019-04-07T21:03:23.844Z,8.90
2019-04-07T21:05:53.481Z,8.90
2019-04-07T21:08:30.265Z,8.90
2019-04-07T21:11:01.566Z,8.80
2019-04-07T21:13:34.549Z,8.80
2019-04-07T21:16:23.505Z,8.90
2019-04-07T21:18:59.100Z,8.80
2019-04-07T21:21:41.627Z,8.80
2019-04-07T21:24:18.932Z,8.80
2019-04-07T21:26:58.091Z,8.80
2019-04-07T21:29:28.244Z,8.80
2019-04-07T21:32:01.438Z,8.90
2019-04-07T21:34:32.471Z,8.90
2019-04-07T21:37:14.817Z,8.90
2019-04-07T21:39:52.447Z,8.90
2019-04-07T21:42:28.835Z,8.90
2019-04-07T21:45:02.402Z,8.90
2019-04-07T21:47:46.120Z,8.90
2019-04-07T21:50:32.799Z,8.90
2019-04-07T21:53:25.702Z,9.10
2019-04-07T21:55:55.356Z,9.10
2019-04-07T21:58:28.128Z,9.00
2019-04-07T22:01:08.155Z,9.00
2019-04-07T22:03:55.034Z,9.10
2019-04-07T22:06:26.542Z,9.10
2019-04-07T22:08:56.967Z,9.20
2019-04-07T22:11:28.135Z,9.10
2019-04-07T22:13:55.543Z,9.10
2019-04-07T22:16:24.584Z,9.10
2019-04-07T22:18:54.173Z,9.10
2019-04-07T22:21:23.493Z,9.10
2019-04-07T22:23:52.693Z,9.10
2019-04-07T22:26:22.148Z,9.20
2019-04-07T22:28:50.744Z,9.10
2019-04-07T22:31:20.786Z,9.10
2019-04-07T22:33:49.211Z,9.10
2019-04-07T22:36:17.639Z,9.30
2019-04-07T22:38:46.036Z,9.20
2019-04-07T22:41:14.545Z,9.10
2019-04-07T22:43:47.976Z,9.20
2019-04-07T22:46:19.483Z,9.10
2019-04-07T22:48:46.189Z,9.10
2019-04-07T22:51:14.930Z,9.00
2019-04-07T22:53:43.401Z,9.00
2019-04-07T22:56:11.916Z,9.00
2019-04-07T22:58:40.417Z,9.00
2019-04-07T23:01:09.058Z,8.90
2019-04-07T23:03:37.479Z,8.90
2019-04-07T23:06:05.902Z,8.90
2019-04-07T23:08:35.024Z,8.90
2019-04-07T23:11:04.293Z,9.00
2019-04-07T23:13:33.600Z,9.00
2019-04-07T23:16:10.758Z,9.00
2019-04-07T23:18:32.151Z,8.90
2019-04-07T23:21:01.122Z,8.90
2019-04-07T23:23:30.918Z,8.90
2019-04-07T23:25:59.890Z,8.90
2019-04-07T23:28:28.442Z,8.90
2019-04-07T23:30:56.971Z,8.90
2019-04-07T23:33:25.611Z,8.80
2019-04-07T23:35:54.150Z,8.80
2019-04-07T23:38:22.554Z,8.90
2019-04-07T23:40:51.487Z,8.90
2019-04-07T23:43:20.069Z,8.80
2019-04-07T23:45:48.490Z,8.90
2019-04-07T23:48:17.929Z,9.00
2019-04-07T23:50:46.567Z,9.00
2019-04-07T23:53:51.219Z,8.90
2019-04-07T23:56:19.807Z,8.90
2019-04-07T23:58:48.267Z,8.90
